Time;durP1;ratioP1;P1;durP2;ratioP2;P2;SDS_P1;SDS_P2;PMS_P1;PMS_P2;Temp;Humidity;BMP_temperature;BMP_pressure;BME280_temperature;BME280_humidity;BME280_pressure;Samples;Min_cycle;Max_cycle;Signal;HPM_P1;HPM_P2
2021/06/26 00:00:15;;;;;;;15.88;11.97;;;20.40;99.90;;;;;;1899302;75;21187;-76
2021/06/26 00:02:42;;;;;;;15.10;10.55;;;20.30;99.90;;;;;;1896686;74;21110;-75
2021/06/26 00:05:12;;;;;;;16.23;10.38;;;20.30;99.90;;;;;;1892238;75;21089;-76
2021/06/26 00:07:44;;;;;;;11.85;9.48;;;20.30;99.90;;;;;;1896825;74;21215;-76
2021/06/26 00:10:10;;;;;;;11.38;9.13;;;20.30;99.90;;;;;;1892644;75;21079;-76
2021/06/26 00:12:37;;;;;;;11.40;9.65;;;20.20;99.90;;;;;;1874178;75;21040;-75
2021/06/26 00:15:08;;;;;;;13.50;9.98;;;20.30;99.90;;;;;;1873229;75;21110;-77
2021/06/26 00:17:35;;;;;;;13.18;9.05;;;20.20;99.90;;;;;;1872633;74;21109;-77
2021/06/26 00:20:04;;;;;;;11.05;8.88;;;20.30;99.90;;;;;;1895981;75;21324;-77
2021/06/26 00:22:32;;;;;;;9.68;8.65;;;20.30;99.90;;;;;;1886474;75;21108;-77
2021/06/26 00:24:59;;;;;;;10.28;8.90;;;20.30;99.90;;;;;;1894486;75;21176;-77
2021/06/26 00:27:28;;;;;;;10.45;8.60;;;20.30;99.90;;;;;;1892232;75;21095;-76
2021/06/26 00:29:55;;;;;;;9.45;8.40;;;20.30;99.90;;;;;;1900940;75;21169;-77
2021/06/26 00:32:23;;;;;;;12.70;8.95;;;20.30;99.90;;;;;;1891787;75;21198;-76
2021/06/26 00:34:50;;;;;;;12.58;8.08;;;20.30;99.90;;;;;;1901929;75;21078;-76
2021/06/26 00:37:18;;;;;;;11.90;7.53;;;20.30;99.90;;;;;;1900191;75;21104;-76
2021/06/26 00:39:45;;;;;;;11.85;8.05;;;20.30;99.90;;;;;;1902189;74;21694;-76
2021/06/26 00:42:13;;;;;;;9.10;8.13;;;20.30;99.90;;;;;;1918372;74;21066;-75
2021/06/26 00:44:40;;;;;;;10.00;8.18;;;20.20;99.90;;;;;;1889386;75;21041;-77
2021/06/26 00:47:12;;;;;;;8.80;7.90;;;20.20;99.90;;;;;;1878762;75;21570;-76
2021/06/26 00:49:38;;;;;;;12.45;8.13;;;20.20;99.90;;;;;;1886228;75;21105;-75
2021/06/26 00:52:05;;;;;;;9.23;8.15;;;20.20;99.90;;;;;;1899693;75;21130;-75
2021/06/26 00:54:34;;;;;;;9.18;8.05;;;20.20;99.90;;;;;;1898687;75;21055;-76
2021/06/26 00:57:02;;;;;;;10.32;8.50;;;20.20;99.90;;;;;;1901244;75;21126;-77
2021/06/26 00:59:30;;;;;;;10.15;8.25;;;20.20;99.90;;;;;;1896589;74;21149;-78
2021/06/26 01:01:58;;;;;;;10.15;7.83;;;20.30;99.90;;;;;;1910022;74;21038;-77
2021/06/26 01:04:25;;;;;;;10.82;7.42;;;20.30;99.90;;;;;;1881626;75;21171;-78
2021/06/26 01:06:55;;;;;;;10.82;8.38;;;20.30;99.90;;;;;;1874094;75;21184;-78
2021/06/26 01:09:22;;;;;;;11.75;8.05;;;20.40;99.90;;;;;;1885794;75;21603;-78
2021/06/26 01:11:50;;;;;;;15.40;8.05;;;20.40;99.90;;;;;;1901885;75;21497;-78
2021/06/26 01:14:18;;;;;;;10.55;8.68;;;20.30;99.90;;;;;;1877260;74;21130;-77
2021/06/26 01:16:46;;;;;;;11.28;8.00;;;20.40;99.90;;;;;;1885221;75;21039;-76
2021/06/26 01:19:13;;;;;;;10.55;7.80;;;20.40;99.90;;;;;;1891177;74;21546;-77
2021/06/26 01:21:41;;;;;;;9.08;7.78;;;20.40;99.90;;;;;;1891240;74;21042;-77
2021/06/26 01:24:09;;;;;;;13.60;8.25;;;20.40;99.90;;;;;;1888407;74;21119;-77
2021/06/26 01:26:36;;;;;;;10.35;8.25;;;20.30;99.90;;;;;;1888314;75;21135;-77
2021/06/26 01:29:12;;;;;;;11.48;7.50;;;20.30;99.90;;;;;;1899323;74;21145;-77
2021/06/26 01:31:39;;;;;;;8.25;7.30;;;20.30;99.90;;;;;;1887794;75;21163;-77
2021/06/26 01:34:07;;;;;;;10.78;7.30;;;20.30;99.90;;;;;;1901237;74;21494;-77
2021/06/26 01:36:35;;;;;;;9.15;7.35;;;20.40;99.90;;;;;;1897448;75;21509;-78
2021/06/26 01:39:02;;;;;;;13.62;8.18;;;20.40;99.90;;;;;;1893914;74;21138;-76
2021/06/26 01:41:35;;;;;;;9.98;7.42;;;20.40;99.90;;;;;;1876475;75;21107;-76
2021/06/26 01:44:03;;;;;;;11.45;8.03;;;20.40;99.90;;;;;;1893674;75;21231;-76
2021/06/26 01:46:33;;;;;;;11.25;7.80;;;20.40;99.90;;;;;;1898758;74;21109;-75
2021/06/26 01:49:12;;;;;;;10.30;8.15;;;20.40;99.90;;;;;;1814024;78;21144;-74
2021/06/26 01:51:40;;;;;;;14.05;8.28;;;20.40;99.90;;;;;;1887886;75;21560;-77
2021/06/26 01:54:09;;;;;;;10.05;7.22;;;20.40;99.90;;;;;;1901662;75;21187;-77
2021/06/26 01:56:38;;;;;;;11.00;8.00;;;20.40;99.90;;;;;;1898540;75;21598;-77
2021/06/26 01:59:06;;;;;;;9.23;7.87;;;20.50;99.90;;;;;;1893941;74;21116;-77
2021/06/26 02:01:35;;;;;;;10.58;8.53;;;20.50;99.90;;;;;;1897246;75;21556;-78
2021/06/26 02:04:03;;;;;;;13.03;8.20;;;20.40;99.90;;;;;;1893216;75;21179;-75
2021/06/26 02:06:30;;;;;;;9.18;8.13;;;20.40;99.90;;;;;;1887108;74;21513;-76
2021/06/26 02:08:58;;;;;;;10.03;8.03;;;20.40;99.90;;;;;;1890606;74;21113;-76
2021/06/26 02:11:25;;;;;;;11.28;7.72;;;20.50;99.90;;;;;;1898739;75;21086;-77
2021/06/26 02:13:53;;;;;;;10.98;9.00;;;20.50;99.90;;;;;;1881611;75;21096;-78
2021/06/26 02:16:20;;;;;;;9.18;8.08;;;20.50;99.90;;;;;;1897063;75;21113;-78
2021/06/26 02:18:48;;;;;;;11.60;8.83;;;20.50;99.90;;;;;;1888631;75;21146;-77
2021/06/26 02:21:15;;;;;;;13.65;9.35;;;20.50;99.90;;;;;;1875877;75;21484;-77
2021/06/26 02:23:43;;;;;;;11.48;8.88;;;20.40;99.90;;;;;;1885762;75;21042;-78
2021/06/26 02:26:10;;;;;;;11.22;9.28;;;20.40;99.90;;;;;;1902467;75;21067;-77
2021/06/26 02:28:38;;;;;;;12.15;9.25;;;20.40;99.90;;;;;;1863798;75;21214;-77
2021/06/26 02:31:05;;;;;;;10.58;8.95;;;20.40;99.90;;;;;;1883446;75;21185;-77
2021/06/26 02:33:33;;;;;;;10.85;9.38;;;20.40;99.90;;;;;;1892646;74;21564;-75
2021/06/26 02:36:00;;;;;;;11.18;9.43;;;20.40;99.90;;;;;;1891578;75;21224;-77
2021/06/26 02:38:28;;;;;;;11.43;8.95;;;20.40;99.90;;;;;;1893893;75;21130;-77
2021/06/26 02:40:55;;;;;;;11.90;8.88;;;20.40;99.90;;;;;;1897875;75;21198;-77
2021/06/26 02:43:23;;;;;;;11.45;9.08;;;20.40;99.90;;;;;;1875693;75;21635;-77
2021/06/26 02:45:50;;;;;;;10.60;9.50;;;20.40;99.90;;;;;;1890862;75;21116;-77
2021/06/26 02:48:18;;;;;;;10.75;9.40;;;20.40;99.90;;;;;;1874885;75;21289;-77
2021/06/26 02:50:45;;;;;;;11.73;9.65;;;20.40;99.90;;;;;;1891467;75;21142;-77
2021/06/26 02:53:13;;;;;;;13.40;9.80;;;20.40;99.90;;;;;;1890450;75;21169;-77
2021/06/26 02:55:40;;;;;;;12.47;9.63;;;20.40;99.90;;;;;;1884080;75;21081;-77
2021/06/26 02:58:08;;;;;;;11.65;9.65;;;20.40;99.90;;;;;;1896674;74;21164;-78
2021/06/26 03:00:35;;;;;;;12.28;10.00;;;20.40;99.90;;;;;;1898579;75;21252;-79
2021/06/26 03:03:03;;;;;;;11.28;9.43;;;20.30;99.90;;;;;;1896288;75;21099;-78
2021/06/26 03:05:30;;;;;;;11.28;10.08;;;20.30;99.90;;;;;;1895911;75;22115;-76
2021/06/26 03:07:58;;;;;;;10.75;9.55;;;20.30;99.90;;;;;;1900738;75;21056;-75
2021/06/26 03:10:25;;;;;;;12.37;8.90;;;20.30;99.90;;;;;;1887659;75;21155;-76
2021/06/26 03:12:53;;;;;;;11.73;8.73;;;20.30;99.90;;;;;;1883212;75;21106;-77
2021/06/26 03:15:20;;;;;;;10.28;9.18;;;20.40;99.90;;;;;;1884851;74;21097;-76
2021/06/26 03:17:48;;;;;;;10.60;9.15;;;20.30;99.90;;;;;;1888187;75;21100;-76
2021/06/26 03:20:15;;;;;;;11.18;8.70;;;20.30;99.90;;;;;;1893955;75;21137;-76
2021/06/26 03:22:43;;;;;;;12.43;9.58;;;20.30;99.90;;;;;;1886887;74;21177;-76
2021/06/26 03:25:13;;;;;;;9.73;8.83;;;20.30;99.90;;;;;;1896562;75;21020;-76
2021/06/26 03:27:40;;;;;;;11.88;8.55;;;20.30;99.90;;;;;;1901977;75;21086;-78
2021/06/26 03:30:09;;;;;;;9.85;8.53;;;20.20;99.90;;;;;;1899931;75;21663;-75
2021/06/26 03:32:36;;;;;;;10.55;8.80;;;20.30;99.90;;;;;;1885287;75;21153;-76
2021/06/26 03:35:04;;;;;;;12.90;9.68;;;20.30;99.90;;;;;;1894917;74;21119;-75
2021/06/26 03:37:32;;;;;;;10.72;8.75;;;20.30;99.90;;;;;;1888495;74;21107;-76
2021/06/26 03:40:00;;;;;;;13.98;9.45;;;20.30;99.90;;;;;;1893690;74;21176;-74
2021/06/26 03:42:27;;;;;;;11.88;9.38;;;20.40;99.90;;;;;;1880488;75;21127;-75
2021/06/26 03:44:55;;;;;;;11.40;8.58;;;20.30;99.90;;;;;;1897407;74;21137;-74
2021/06/26 03:47:22;;;;;;;9.20;8.30;;;20.30;99.90;;;;;;1899219;75;21110;-76
2021/06/26 03:49:50;;;;;;;15.05;8.80;;;20.40;99.90;;;;;;1889255;74;21201;-75
2021/06/26 03:52:17;;;;;;;11.78;9.03;;;20.40;99.90;;;;;;1890820;75;21628;-75
2021/06/26 03:54:45;;;;;;;11.15;9.30;;;20.40;99.90;;;;;;1876821;74;21615;-75
2021/06/26 03:57:12;;;;;;;11.75;9.73;;;20.40;99.90;;;;;;1895323;75;21243;-75
2021/06/26 03:59:40;;;;;;;13.60;10.80;;;20.50;99.90;;;;;;1895918;75;21122;-74
2021/06/26 04:02:07;;;;;;;12.93;10.58;;;20.50;99.90;;;;;;1895038;75;21088;-75
2021/06/26 04:04:38;;;;;;;14.95;10.50;;;20.50;99.90;;;;;;1873312;75;21094;-75
2021/06/26 04:07:06;;;;;;;15.32;10.48;;;20.50;99.90;;;;;;1873523;75;21068;-74
2021/06/26 04:09:33;;;;;;;12.53;10.20;;;20.50;99.90;;;;;;1872728;75;21197;-75
2021/06/26 04:12:01;;;;;;;14.15;11.00;;;20.50;99.90;;;;;;1882077;74;21220;-76
2021/06/26 04:14:28;;;;;;;14.00;10.93;;;20.50;99.90;;;;;;1893683;75;21060;-75
2021/06/26 04:16:56;;;;;;;14.83;11.08;;;20.50;99.90;;;;;;1886651;75;21111;-75
2021/06/26 04:19:23;;;;;;;14.05;11.30;;;20.60;99.90;;;;;;1886409;74;21173;-76
2021/06/26 04:21:51;;;;;;;13.20;11.85;;;20.60;99.90;;;;;;1892520;75;21047;-77
2021/06/26 04:24:18;;;;;;;14.03;12.07;;;20.60;99.90;;;;;;1897236;74;21149;-76
2021/06/26 04:26:46;;;;;;;15.08;11.93;;;20.70;99.90;;;;;;1898525;74;21098;-76
2021/06/26 04:29:14;;;;;;;13.50;11.95;;;20.80;99.90;;;;;;1894547;74;21192;-75
2021/06/26 04:31:41;;;;;;;12.98;11.40;;;20.90;99.90;;;;;;1887461;75;21052;-75
2021/06/26 04:34:09;;;;;;;14.78;12.15;;;20.90;99.90;;;;;;1863769;75;21171;-75
2021/06/26 04:36:36;;;;;;;13.98;12.13;;;20.90;99.90;;;;;;1890291;74;22226;-75
2021/06/26 04:39:07;;;;;;;13.85;12.40;;;20.90;99.90;;;;;;1898328;75;21603;-74
2021/06/26 04:41:38;;;;;;;14.78;13.08;;;20.90;99.90;;;;;;1882356;75;21127;-76
2021/06/26 04:44:06;;;;;;;14.00;12.47;;;20.90;99.90;;;;;;1895918;75;21102;-75
2021/06/26 04:46:35;;;;;;;14.85;12.68;;;21.00;99.90;;;;;;1885889;75;21192;-75
2021/06/26 04:49:04;;;;;;;13.50;12.03;;;21.00;99.90;;;;;;1899352;75;21234;-76
2021/06/26 04:51:33;;;;;;;12.58;11.28;;;21.00;99.90;;;;;;1894584;74;21128;-75
2021/06/26 04:54:00;;;;;;;13.25;11.85;;;21.10;99.90;;;;;;1902065;75;21082;-75
2021/06/26 04:56:28;;;;;;;13.20;11.53;;;21.10;99.90;;;;;;1859559;75;21520;-75
2021/06/26 04:58:55;;;;;;;14.78;11.75;;;21.10;99.90;;;;;;1896283;74;21090;-75
2021/06/26 05:01:23;;;;;;;13.55;10.90;;;21.20;99.90;;;;;;1896727;75;21184;-75
2021/06/26 05:03:50;;;;;;;12.20;10.72;;;21.20;99.90;;;;;;1882759;75;21127;-75
2021/06/26 05:06:18;;;;;;;13.70;10.80;;;21.20;99.90;;;;;;1883332;74;21504;-75
2021/06/26 05:08:45;;;;;;;16.62;12.15;;;21.30;99.90;;;;;;1879037;75;21149;-76
2021/06/26 05:11:13;;;;;;;13.43;10.82;;;21.30;99.90;;;;;;1893958;74;21100;-75
2021/06/26 05:13:40;;;;;;;12.33;11.00;;;21.30;99.90;;;;;;1892549;75;21376;-75
2021/06/26 05:16:08;;;;;;;12.13;10.90;;;21.30;99.90;;;;;;1893133;75;21506;-75
2021/06/26 05:18:35;;;;;;;15.40;10.60;;;21.30;99.90;;;;;;1888602;74;21132;-75
2021/06/26 05:21:03;;;;;;;15.72;11.00;;;21.40;99.90;;;;;;1894198;75;21093;-75
2021/06/26 05:23:31;;;;;;;13.22;11.75;;;21.40;99.90;;;;;;1878108;75;21130;-75
2021/06/26 05:25:59;;;;;;;12.88;11.03;;;21.40;99.90;;;;;;1894133;74;21126;-76
2021/06/26 05:28:27;;;;;;;13.22;11.73;;;21.40;99.90;;;;;;1886281;75;21710;-75
2021/06/26 05:30:54;;;;;;;13.32;11.35;;;21.50;99.90;;;;;;1883413;75;21084;-74
2021/06/26 05:33:22;;;;;;;14.30;10.78;;;21.50;99.90;;;;;;1896521;74;21625;-75
2021/06/26 05:35:50;;;;;;;12.18;10.60;;;21.50;99.90;;;;;;1890805;75;21170;-75
2021/06/26 05:38:17;;;;;;;13.35;11.53;;;21.50;99.90;;;;;;1894162;71;21138;-70
2021/06/26 05:40:45;;;;;;;14.18;11.43;;;21.50;99.90;;;;;;1915725;73;21095;-72
2021/06/26 05:43:12;;;;;;;16.65;11.63;;;21.50;99.90;;;;;;1948987;73;21049;-72
2021/06/26 05:45:40;;;;;;;12.98;11.65;;;21.50;99.90;;;;;;1928407;73;21087;-71
2021/06/26 05:48:08;;;;;;;12.43;11.03;;;21.50;99.90;;;;;;1926026;73;21544;-73
2021/06/26 05:50:36;;;;;;;13.00;11.60;;;21.60;99.90;;;;;;1950893;73;21065;-73
2021/06/26 05:53:04;;;;;;;14.28;11.73;;;21.60;99.90;;;;;;1949232;73;21095;-73
2021/06/26 05:55:31;;;;;;;16.02;13.95;;;21.60;99.90;;;;;;1936332;73;21082;-72
2021/06/26 05:57:59;;;;;;;15.50;13.08;;;21.70;99.90;;;;;;1917655;73;21087;-72
2021/06/26 06:00:33;;;;;;;18.20;13.22;;;21.60;99.90;;;;;;1939748;73;21224;-73
2021/06/26 06:02:59;;;;;;;14.40;12.90;;;21.70;99.90;;;;;;1934264;73;21095;-72
2021/06/26 06:05:26;;;;;;;15.48;13.28;;;21.70;99.90;;;;;;1946467;73;21047;-71
2021/06/26 06:07:54;;;;;;;16.12;13.48;;;21.80;99.90;;;;;;1951507;73;21061;-69
2021/06/26 06:10:21;;;;;;;17.65;13.85;;;21.80;99.90;;;;;;1937099;72;21640;-71
2021/06/26 06:12:49;;;;;;;14.00;12.50;;;21.90;99.90;;;;;;1944806;72;21069;-69
2021/06/26 06:15:16;;;;;;;16.73;14.93;;;21.90;99.90;;;;;;1916936;73;21098;-71
2021/06/26 06:17:44;;;;;;;17.67;14.60;;;22.00;99.90;;;;;;1908634;73;21556;-70
2021/06/26 06:20:12;;;;;;;18.15;13.85;;;22.00;99.90;;;;;;1917899;73;21599;-71
2021/06/26 06:22:40;;;;;;;14.70;13.18;;;22.00;99.90;;;;;;1926459;73;21062;-70
2021/06/26 06:25:10;;;;;;;14.80;12.90;;;22.00;99.90;;;;;;1951982;73;21158;-70
2021/06/26 06:27:44;;;;;;;16.48;14.73;;;22.10;99.90;;;;;;1950687;72;21060;-70
2021/06/26 06:30:10;;;;;;;16.52;14.60;;;22.20;99.90;;;;;;1949826;73;21053;-73
2021/06/26 06:32:38;;;;;;;19.67;14.70;;;22.30;99.90;;;;;;1890344;75;21373;-69
2021/06/26 06:35:06;;;;;;;19.23;14.70;;;22.30;99.90;;;;;;1893692;75;21073;-73
2021/06/26 06:37:34;;;;;;;16.48;14.07;;;22.40;99.90;;;;;;1901128;73;21076;-72
2021/06/26 06:40:01;;;;;;;16.20;14.53;;;22.40;99.90;;;;;;1951776;73;21728;-72
2021/06/26 06:42:29;;;;;;;16.55;14.18;;;22.50;99.90;;;;;;1949941;73;21085;-73
2021/06/26 06:44:56;;;;;;;17.90;14.98;;;22.50;99.90;;;;;;1952017;73;21080;-73
2021/06/26 06:47:24;;;;;;;20.30;14.93;;;22.60;99.90;;;;;;1949621;73;21557;-73
2021/06/26 06:49:51;;;;;;;15.90;14.15;;;22.60;99.90;;;;;;1951768;73;21049;-72
2021/06/26 06:52:19;;;;;;;15.78;13.98;;;22.70;99.90;;;;;;1950710;73;21076;-72
2021/06/26 06:54:46;;;;;;;20.12;15.05;;;22.70;99.90;;;;;;1934618;73;21081;-71
2021/06/26 06:57:14;;;;;;;19.55;16.35;;;22.80;99.90;;;;;;1949856;73;21170;-72
2021/06/26 06:59:41;;;;;;;22.90;17.35;;;22.70;99.90;;;;;;1951890;73;21170;-72
2021/06/26 07:02:09;;;;;;;18.48;15.25;;;22.70;99.70;;;;;;1947610;73;21143;-73
2021/06/26 07:04:36;;;;;;;18.52;15.80;;;22.80;99.10;;;;;;1951877;73;21080;-73
2021/06/26 07:07:04;;;;;;;23.18;15.98;;;22.80;99.40;;;;;;1950718;73;21147;-73
2021/06/26 07:09:31;;;;;;;18.15;13.90;;;22.80;99.90;;;;;;1950536;73;21099;-72
2021/06/26 07:12:00;;;;;;;16.40;14.45;;;22.90;99.60;;;;;;1948006;73;21042;-72
2021/06/26 07:14:28;;;;;;;17.10;13.28;;;22.90;99.60;;;;;;1950462;73;21630;-70
2021/06/26 07:16:55;;;;;;;16.70;13.10;;;23.00;98.90;;;;;;1945119;73;21145;-71
2021/06/26 07:19:23;;;;;;;15.38;12.37;;;23.00;98.90;;;;;;1951358;72;21580;-73
2021/06/26 07:21:50;;;;;;;16.52;12.30;;;23.10;99.80;;;;;;1885059;73;21090;-69
2021/06/26 07:24:19;;;;;;;15.23;13.10;;;23.10;99.70;;;;;;1930936;72;21067;-71
2021/06/26 07:26:47;;;;;;;16.32;12.30;;;23.10;99.80;;;;;;1944100;73;21166;-71
2021/06/26 07:29:14;;;;;;;15.83;13.30;;;23.20;99.90;;;;;;1924713;73;21119;-71
2021/06/26 07:31:42;;;;;;;18.12;13.32;;;23.20;99.90;;;;;;1927208;73;21105;-71
2021/06/26 07:34:09;;;;;;;16.00;13.28;;;23.20;99.90;;;;;;1926504;73;21557;-72
2021/06/26 07:36:37;;;;;;;18.20;13.05;;;23.20;99.90;;;;;;1919066;73;21056;-71
2021/06/26 07:39:05;;;;;;;15.72;13.13;;;23.30;99.90;;;;;;1931161;72;21080;-71
2021/06/26 07:41:33;;;;;;;15.85;13.30;;;23.30;99.80;;;;;;1930425;73;21561;-73
2021/06/26 07:44:01;;;;;;;17.15;14.30;;;23.30;98.70;;;;;;1943133;73;21090;-72
2021/06/26 07:46:28;;;;;;;18.92;15.30;;;23.30;98.00;;;;;;1925029;73;21056;-72
2021/06/26 07:48:56;;;;;;;17.27;13.83;;;23.30;98.90;;;;;;1928315;73;21042;-73
2021/06/26 07:51:23;;;;;;;19.55;14.53;;;23.40;99.10;;;;;;1930646;73;21621;-74
2021/06/26 07:53:51;;;;;;;17.90;14.40;;;23.40;98.60;;;;;;1937741;73;21100;-74
2021/06/26 07:56:18;;;;;;;20.88;15.05;;;23.40;97.60;;;;;;1932608;73;21060;-74
2021/06/26 07:58:46;;;;;;;20.57;13.80;;;23.40;98.10;;;;;;1916174;73;21133;-74
2021/06/26 08:01:15;;;;;;;20.50;12.98;;;23.50;98.80;;;;;;1932876;73;21090;-74
2021/06/26 08:03:44;;;;;;;16.97;12.50;;;23.50;99.90;;;;;;1931667;73;21450;-70
2021/06/26 08:06:11;;;;;;;16.50;13.48;;;23.50;99.90;;;;;;1936110;73;21577;-71
2021/06/26 08:08:39;;;;;;;18.57;14.40;;;23.50;99.90;;;;;;1945596;73;21667;-70
2021/06/26 08:11:06;;;;;;;19.37;14.33;;;23.60;98.50;;;;;;1936960;73;21546;-72
2021/06/26 08:13:34;;;;;;;19.77;14.85;;;23.60;98.30;;;;;;1944010;73;21137;-71
2021/06/26 08:16:02;;;;;;;20.27;14.20;;;23.60;99.10;;;;;;1939987;72;21083;-72
2021/06/26 08:18:29;;;;;;;20.05;13.78;;;23.70;99.90;;;;;;1930616;73;21100;-70
2021/06/26 08:20:57;;;;;;;16.55;13.15;;;23.70;99.90;;;;;;1941363;73;21101;-71
2021/06/26 08:23:24;;;;;;;20.10;15.03;;;23.70;99.90;;;;;;1928154;72;21091;-70
2021/06/26 08:25:52;;;;;;;19.80;14.45;;;23.70;99.90;;;;;;1926743;73;21095;-74
2021/06/26 08:28:19;;;;;;;19.55;13.98;;;23.70;99.90;;;;;;1930368;73;21418;-72
2021/06/26 08:30:47;;;;;;;21.97;16.37;;;23.70;99.90;;;;;;1928376;73;21143;-72
2021/06/26 08:33:14;;;;;;;16.65;13.53;;;23.70;99.90;;;;;;1921281;73;21161;-71
2021/06/26 08:35:42;;;;;;;16.35;13.13;;;23.70;99.90;;;;;;1922951;73;21141;-71
2021/06/26 08:38:09;;;;;;;17.52;14.28;;;23.70;99.90;;;;;;1899159;75;21110;-75
2021/06/26 08:40:37;;;;;;;19.98;14.55;;;23.70;99.90;;;;;;1894721;75;21142;-75
2021/06/26 08:43:04;;;;;;;18.12;14.38;;;23.80;99.90;;;;;;1921484;73;21138;-74
2021/06/26 08:45:35;;;;;;;17.07;13.30;;;23.80;99.90;;;;;;1915543;73;21096;-70
2021/06/26 08:48:03;;;;;;;17.20;13.55;;;23.90;99.90;;;;;;1947102;72;21080;-73
2021/06/26 08:50:30;;;;;;;20.23;14.33;;;24.00;99.90;;;;;;1929056;73;21154;-76
2021/06/26 08:52:58;;;;;;;16.48;14.15;;;24.10;99.90;;;;;;1929104;73;21082;-73
2021/06/26 08:55:26;;;;;;;19.32;14.83;;;24.10;99.90;;;;;;1935212;73;21235;-73
2021/06/26 08:57:54;;;;;;;17.85;13.58;;;24.20;99.90;;;;;;1935745;73;21782;-73
2021/06/26 09:00:24;;;;;;;16.62;13.98;;;24.20;99.90;;;;;;1917977;74;21670;-74
2021/06/26 09:02:54;;;;;;;18.40;14.03;;;24.30;99.90;;;;;;1925516;73;21063;-73
2021/06/26 09:05:27;;;;;;;24.12;14.15;;;24.40;99.90;;;;;;1946497;72;21169;-74
2021/06/26 09:07:55;;;;;;;19.37;16.23;;;24.50;99.60;;;;;;1949838;73;21060;-73
2021/06/26 09:10:25;;;;;;;15.85;13.68;;;24.50;98.80;;;;;;1951397;73;21547;-74
2021/06/26 09:12:53;;;;;;;20.85;15.10;;;24.50;99.70;;;;;;1939575;73;21200;-73
2021/06/26 09:15:29;;;;;;;19.07;15.10;;;24.60;99.30;;;;;;1936509;73;21069;-73
2021/06/26 09:17:57;;;;;;;18.37;14.73;;;24.60;98.40;;;;;;1950865;73;21158;-72
2021/06/26 09:20:35;;;;;;;16.82;15.03;;;24.60;98.30;;;;;;1951980;73;21084;-73
2021/06/26 09:23:05;;;;;;;18.23;15.05;;;24.70;97.60;;;;;;1950719;73;21049;-73
2021/06/26 09:25:38;;;;;;;20.40;13.88;;;24.80;98.40;;;;;;1950727;73;21092;-74
2021/06/26 09:28:14;;;;;;;16.97;14.45;;;24.80;98.00;;;;;;1951885;73;21061;-74
2021/06/26 09:30:41;;;;;;;;;;;24.80;98.50;;;;;;1897075;75;21140;-74
2021/06/26 09:33:17;;;;;;;16.95;13.62;;;24.90;98.20;;;;;;1901618;75;20168;-74
2021/06/26 09:36:08;;;;;;;15.98;13.90;;;24.80;98.30;;;;;;1889124;75;21319;-74
2021/06/26 09:38:39;;;;;;;17.10;14.55;;;24.80;97.80;;;;;;1820366;78;21608;-74
2021/06/26 09:41:18;;;;;;;16.87;12.68;;;24.80;97.70;;;;;;1847886;76;21099;-73
2021/06/26 09:43:46;;;;;;;15.65;13.28;;;24.80;98.00;;;;;;1883275;75;21102;-74
2021/06/26 09:46:15;;;;;;;18.95;12.35;;;24.80;98.70;;;;;;1951756;73;21147;-74
2021/06/26 09:49:03;;;;;;;18.40;12.10;;;24.80;98.10;;;;;;1947877;72;21177;-74
2021/06/26 09:51:33;;;;;;;13.98;11.65;;;24.90;98.10;;;;;;1924559;74;21041;-74
2021/06/26 09:54:03;;;;;;;15.73;12.17;;;24.90;97.80;;;;;;1939876;73;21224;-74
2021/06/26 09:56:48;;;;;;;17.55;12.90;;;24.90;98.70;;;;;;1928294;73;21057;-73
2021/06/26 09:59:20;;;;;;;15.88;13.25;;;24.90;98.80;;;;;;1927318;73;21175;-73
2021/06/26 10:01:47;;;;;;;17.20;12.50;;;24.80;98.90;;;;;;1921972;72;21102;-74
2021/06/26 10:04:16;;;;;;;17.52;14.45;;;24.80;99.50;;;;;;1948297;73;21608;-73
2021/06/26 10:06:46;;;;;;;15.15;12.70;;;24.70;98.20;;;;;;1949234;73;21079;-74
2021/06/26 10:09:14;;;;;;;14.65;12.63;;;24.70;98.70;;;;;;1934873;73;21131;-73
2021/06/26 10:11:42;;;;;;;15.90;11.63;;;24.70;98.30;;;;;;1951351;73;22216;-73
2021/06/26 10:14:12;;;;;;;15.18;11.57;;;24.80;98.70;;;;;;1949063;73;21135;-73
2021/06/26 10:16:42;;;;;;;18.42;12.75;;;24.80;98.00;;;;;;1938873;73;21306;-71
2021/06/26 10:19:12;;;;;;;14.33;12.05;;;24.80;97.90;;;;;;1927777;73;21055;-71
2021/06/26 10:21:43;;;;;;;19.02;14.70;;;24.80;98.50;;;;;;1916883;73;21012;-71
2021/06/26 10:24:14;;;;;;;17.10;15.23;;;24.90;98.70;;;;;;1911792;73;21471;-71
2021/06/26 10:26:43;;;;;;;20.00;15.90;;;25.00;96.70;;;;;;1926571;73;21038;-71
2021/06/26 10:29:13;;;;;;;17.95;13.70;;;25.10;96.60;;;;;;1908012;75;21050;-71
2021/06/26 10:31:43;;;;;;;15.80;14.20;;;25.20;97.70;;;;;;1906892;73;21089;-71
2021/06/26 10:34:23;;;;;;;21.05;14.80;;;25.30;98.00;;;;;;1902684;73;21117;-72
2021/06/26 10:36:54;;;;;;;16.93;15.13;;;25.40;98.10;;;;;;1902730;73;21091;-71
2021/06/26 10:39:27;;;;;;;20.00;15.43;;;25.40;97.70;;;;;;1902741;74;21228;-71
2021/06/26 10:42:09;;;;;;;16.07;14.20;;;25.40;97.80;;;;;;1903249;73;21623;-73
2021/06/26 10:44:45;;;;;;;19.92;17.50;;;25.50;97.70;;;;;;1902225;73;21087;-72
2021/06/26 10:47:14;;;;;;;21.05;16.73;;;25.50;97.30;;;;;;1902679;73;21436;-73
2021/06/26 10:49:42;;;;;;;24.10;15.72;;;25.60;97.30;;;;;;1904694;73;21634;-72
2021/06/26 10:52:13;;;;;;;16.50;14.73;;;25.60;97.90;;;;;;1902426;73;21070;-72
2021/06/26 10:54:55;;;;;;;21.23;16.65;;;25.70;98.40;;;;;;1902379;73;21095;-72
2021/06/26 10:57:24;;;;;;;18.40;16.23;;;25.70;97.00;;;;;;1900935;73;21143;-72
2021/06/26 11:00:04;;;;;;;19.17;15.58;;;25.70;96.80;;;;;;1902794;73;21643;-72
2021/06/26 11:02:41;;;;;;;23.22;18.15;;;25.70;98.60;;;;;;1901891;73;21572;-72
2021/06/26 11:05:11;;;;;;;22.32;17.20;;;25.80;99.80;;;;;;1902036;73;21953;-72
2021/06/26 11:07:39;;;;;;;24.18;18.90;;;25.90;97.90;;;;;;1901508;73;21304;-72
2021/06/26 11:10:10;;;;;;;21.48;17.77;;;26.00;97.30;;;;;;1902490;73;21141;-72
2021/06/26 11:12:44;;;;;;;19.05;15.35;;;26.00;96.40;;;;;;1901901;73;21812;-72
2021/06/26 11:15:11;;;;;;;20.35;15.80;;;26.00;96.90;;;;;;1902313;73;21180;-73
2021/06/26 11:17:45;;;;;;;18.95;16.87;;;26.00;97.40;;;;;;1903253;73;21173;-72
2021/06/26 11:20:21;;;;;;;21.12;17.15;;;26.00;97.60;;;;;;1903253;73;21119;-72
2021/06/26 11:22:55;;;;;;;22.58;16.30;;;26.00;96.60;;;;;;1903151;73;21085;-72
2021/06/26 11:25:28;;;;;;;24.27;16.87;;;26.00;97.00;;;;;;1902938;73;21197;-72
2021/06/26 11:28:07;;;;;;;21.55;16.95;;;26.00;97.60;;;;;;1904134;73;21091;-72
2021/06/26 11:30:36;;;;;;;26.10;21.40;;;25.90;97.80;;;;;;1897277;73;21075;-72
2021/06/26 11:33:05;;;;;;;20.75;17.92;;;25.90;97.70;;;;;;1904327;73;22104;-72
2021/06/26 11:35:37;;;;;;;21.82;18.50;;;25.90;98.60;;;;;;1904207;73;21155;-72
2021/06/26 11:38:07;;;;;;;26.52;21.45;;;25.80;98.10;;;;;;1902949;73;21593;-73
2021/06/26 11:40:35;;;;;;;27.62;18.80;;;25.80;97.70;;;;;;1902204;73;21089;-73
2021/06/26 11:43:06;;;;;;;24.55;18.65;;;25.70;98.40;;;;;;1903729;73;21191;-73
2021/06/26 11:45:38;;;;;;;27.30;20.15;;;25.70;98.20;;;;;;1903312;73;21575;-73
2021/06/26 11:48:12;;;;;;;22.02;18.92;;;25.80;98.60;;;;;;1902382;73;21198;-72
2021/06/26 11:50:42;;;;;;;27.15;20.60;;;25.80;98.10;;;;;;1902015;73;21072;-73
2021/06/26 11:53:11;;;;;;;21.02;18.75;;;25.80;98.20;;;;;;1902967;73;21081;-73
2021/06/26 11:55:55;;;;;;;26.40;21.33;;;25.80;97.90;;;;;;1915108;73;21129;-73
2021/06/26 11:58:20;;;;;;;21.33;15.32;;;25.80;98.20;;;;;;1930958;71;21197;-74
2021/06/26 12:01:05;;;;;;;24.25;18.52;;;25.80;98.30;;;;;;1941976;73;21100;-74
2021/06/26 12:03:33;;;;;;;22.42;17.75;;;25.80;97.80;;;;;;1923174;73;21473;-75
2021/06/26 12:06:04;;;;;;;27.93;18.73;;;25.80;97.90;;;;;;1897752;74;21273;-74
2021/06/26 12:08:33;;;;;;;25.02;18.45;;;25.80;98.50;;;;;;1882580;75;21590;-74
2021/06/26 12:11:01;;;;;;;24.32;20.52;;;25.90;98.60;;;;;;1890960;74;21043;-72
2021/06/26 12:13:29;;;;;;;22.37;19.00;;;25.90;97.80;;;;;;1891374;74;21107;-74
2021/06/26 12:15:56;;;;;;;23.25;19.20;;;25.90;98.70;;;;;;1882821;75;20986;-72
2021/06/26 12:18:24;;;;;;;27.40;18.67;;;25.90;98.50;;;;;;1879628;76;21073;-72
2021/06/26 12:20:51;;;;;;;22.62;18.80;;;25.90;98.90;;;;;;1865983;76;21132;-72
2021/06/26 12:23:19;;;;;;;25.30;18.82;;;26.00;99.00;;;;;;1932277;73;21101;-77
2021/06/26 12:25:47;;;;;;;22.05;19.17;;;26.00;96.90;;;;;;1865318;76;21042;-76
2021/06/26 12:28:14;;;;;;;25.55;20.75;;;26.10;96.50;;;;;;1931403;73;21295;-76
2021/06/26 12:30:43;;;;;;;22.93;18.60;;;26.10;96.40;;;;;;1931104;73;21163;-74
2021/06/26 12:33:14;;;;;;;19.32;16.10;;;26.20;96.40;;;;;;1857142;75;21183;-76
2021/06/26 12:35:41;;;;;;;21.12;16.25;;;26.20;96.20;;;;;;1924448;73;21402;-73
2021/06/26 12:38:09;;;;;;;17.17;13.88;;;26.30;96.00;;;;;;1855066;76;21128;-73